Time;durP1;ratioP1;P1;durP2;ratioP2;P2;SDS_P1;SDS_P2;PMS_P1;PMS_P2;Temp;Humidity;BMP_temperature;BMP_pressure;BME280_temperature;BME280_humidity;BME280_pressure;Samples;Min_cycle;Max_cycle;Signal;HPM_P1;HPM_P2
2023/04/27 00:01:16;;;;;;;6.43;1.63;;;;;;;12.71;40.83;101473.97;4968994;28;96812;-70
2023/04/27 00:03:45;;;;;;;2.70;1.42;;;;;;;12.61;41.24;101464.56;4980595;28;99093;-69
2023/04/27 00:06:11;;;;;;;7.82;1.88;;;;;;;12.52;41.36;101468.38;4970579;28;99351;-71
2023/04/27 00:08:38;;;;;;;9.93;2.30;;;;;;;12.46;41.20;101468.59;4971905;28;96808;-70
2023/04/27 00:11:04;;;;;;;4.68;1.48;;;;;;;12.57;41.08;101460.28;4970083;28;97025;-70
2023/04/27 00:13:31;;;;;;;6.93;1.48;;;;;;;12.58;40.73;101462.88;4972362;28;99265;-69
2023/04/27 00:15:59;;;;;;;7.35;1.50;;;;;;;12.50;40.89;101464.91;4968372;28;99084;-69
2023/04/27 00:18:26;;;;;;;7.18;1.65;;;;;;;12.49;41.21;101462.31;4969971;28;96792;-71
2023/04/27 00:20:53;;;;;;;5.18;1.60;;;;;;;12.49;41.27;101462.31;4972191;28;96972;-70
2023/04/27 00:23:20;;;;;;;3.78;1.40;;;;;;;12.50;41.38;101459.59;4964525;28;98203;-70
2023/04/27 00:25:46;;;;;;;6.03;1.50;;;;;;;12.59;41.04;101469.06;4967626;28;99013;-69
2023/04/27 00:28:13;;;;;;;5.00;1.52;;;;;;;12.59;40.86;101463.75;4966489;28;98954;-70
2023/04/27 00:30:39;;;;;;;6.43;1.60;;;;;;;12.71;40.96;101466.00;4965543;28;97807;-71
2023/04/27 00:33:06;;;;;;;8.98;1.88;;;;;;;12.94;40.32;101460.78;4971471;28;99349;-70
2023/04/27 00:35:32;;;;;;;9.15;1.73;;;;;;;12.81;40.31;101472.72;4959510;28;99526;-69
2023/04/27 00:38:00;;;;;;;5.13;1.65;;;;;;;13.08;40.05;101470.94;4966600;28;97214;-72
2023/04/27 00:40:26;;;;;;;5.18;1.60;;;;;;;13.19;39.74;101470.59;4968654;28;97021;-70
2023/04/27 00:42:53;;;;;;;4.75;1.48;;;;;;;12.91;40.30;101468.84;4964496;28;98874;-71
2023/04/27 00:45:19;;;;;;;6.53;1.77;;;;;;;12.84;40.30;101475.28;4966391;28;99011;-70
2023/04/27 00:47:46;;;;;;;9.43;1.65;;;;;;;12.82;40.34;101470.94;4970194;28;96943;-70
2023/04/27 00:50:12;;;;;;;3.90;1.60;;;;;;;12.56;41.12;101474.44;4974814;28;97781;-70
2023/04/27 00:52:39;;;;;;;5.53;1.48;;;;;;;12.72;40.91;101476.56;4965775;28;99109;-70
2023/04/27 00:55:08;;;;;;;7.78;1.50;;;;;;;12.77;40.67;101485.22;4970401;28;100326;-70
2023/04/27 00:57:34;;;;;;;5.72;1.52;;;;;;;12.75;40.99;101480.88;4970492;28;97066;-68
2023/04/27 01:00:04;;;;;;;5.15;1.65;;;;;;;12.65;40.86;101485.63;4974136;28;97540;-69
2023/04/27 01:02:31;;;;;;;6.05;1.50;;;;;;;12.90;40.62;101484.81;4969573;28;98915;-70
2023/04/27 01:05:01;;;;;;;4.95;1.42;;;;;;;12.63;41.29;101482.16;4973121;28;99134;-70
2023/04/27 01:07:28;;;;;;;6.38;1.60;;;;;;;12.69;41.19;101491.69;4968150;28;96766;-69
2023/04/27 01:09:54;;;;;;;6.05;1.75;;;;;;;12.45;41.87;101484.53;4966113;28;97047;-69
2023/04/27 01:12:22;;;;;;;6.25;1.60;;;;;;;12.69;41.42;101483.72;4967710;28;100016;-70
2023/04/27 01:14:48;;;;;;;7.30;1.75;;;;;;;12.69;41.50;101483.72;4965332;28;98941;-71
2023/04/27 01:17:14;;;;;;;6.28;1.77;;;;;;;12.95;41.21;101483.75;4961126;28;96955;-70
2023/04/27 01:19:41;;;;;;;5.95;1.67;;;;;;;13.07;40.89;101482.44;4965538;28;97129;-70
2023/04/27 01:22:08;;;;;;;10.02;2.15;;;;;;;13.12;40.90;101491.16;4966543;28;97628;-70
2023/04/27 01:24:36;;;;;;;11.43;2.10;;;;;;;12.70;41.51;101481.03;4967056;28;99230;-70
2023/04/27 01:27:03;;;;;;;7.20;1.75;;;;;;;12.93;41.29;101490.88;4971106;28;98807;-70
2023/04/27 01:29:30;;;;;;;4.47;1.77;;;;;;;12.82;41.57;101497.47;4968046;28;97143;-72
2023/04/27 01:31:56;;;;;;;3.75;1.50;;;;;;;12.97;41.32;101499.63;4966544;28;99340;-71
2023/04/27 01:34:22;;;;;;;6.95;1.77;;;;;;;12.52;42.20;101494.91;4963348;28;98982;-70
2023/04/27 01:36:49;;;;;;;7.32;1.63;;;;;;;12.54;42.38;101489.53;4962776;28;96859;-69
2023/04/27 01:39:15;;;;;;;9.38;1.90;;;;;;;12.54;42.30;101495.69;4966245;28;97105;-72
2023/04/27 01:41:43;;;;;;;7.43;2.08;;;;;;;12.70;41.95;101498.72;4964742;28;99326;-71
2023/04/27 01:44:10;;;;;;;7.07;1.48;;;;;;;12.73;41.82;101501.31;4965720;28;98714;-70
2023/04/27 01:46:37;;;;;;;6.80;1.40;;;;;;;12.75;41.84;101499.44;4969071;28;96913;-70
2023/04/27 01:49:03;;;;;;;8.93;1.80;;;;;;;12.80;41.48;101500.16;4965380;28;97733;-71
2023/04/27 01:51:31;;;;;;;5.07;1.70;;;;;;;12.86;41.32;101509.72;4967477;28;99051;-70
2023/04/27 01:53:58;;;;;;;4.00;1.45;;;;;;;12.75;41.45;101508.28;4966545;28;97606;-71
2023/04/27 01:56:24;;;;;;;8.05;2.15;;;;;;;12.78;41.18;101509.97;4965421;28;96663;-71
2023/04/27 01:58:53;;;;;;;6.32;1.63;;;;;;;12.73;41.46;101515.41;4966781;28;97375;-71
2023/04/27 02:01:21;;;;;;;5.85;1.85;;;;;;;12.82;41.42;101513.38;4968151;28;98881;-71
2023/04/27 02:03:47;;;;;;;5.82;1.73;;;;;;;12.87;41.11;101514.94;4966694;28;99815;-71
2023/04/27 02:06:13;;;;;;;5.65;1.55;;;;;;;12.87;41.08;101517.59;4970283;28;97142;-71
2023/04/27 02:08:40;;;;;;;8.95;2.13;;;;;;;12.60;41.72;101513.22;4967112;28;101338;-71
2023/04/27 02:11:06;;;;;;;4.30;1.67;;;;;;;12.59;41.89;101516.78;4965831;28;99395;-71
2023/04/27 02:13:32;;;;;;;9.32;2.15;;;;;;;12.47;41.83;101525.13;4969829;28;99312;-71
2023/04/27 02:16:02;;;;;;;4.72;1.48;;;;;;;12.48;41.75;101524.19;4976138;28;97606;-70
2023/04/27 02:18:28;;;;;;;6.28;1.60;;;;;;;12.25;42.09;101528.41;4970232;28;97218;-70
2023/04/27 02:20:54;;;;;;;6.68;2.42;;;;;;;12.16;42.20;101528.69;4968514;28;99390;-70
2023/04/27 02:23:21;;;;;;;3.90;1.40;;;;;;;12.15;42.68;101526.06;4965294;28;98847;-70
2023/04/27 02:25:47;;;;;;;6.72;1.67;;;;;;;12.23;42.19;101540.84;4967084;28;96801;-69
2023/04/27 02:28:13;;;;;;;9.40;1.80;;;;;;;12.19;42.33;101528.59;4975309;28;97491;-70
2023/04/27 02:30:40;;;;;;;6.38;1.73;;;;;;;12.28;42.02;101536.25;4969426;28;99364;-70
2023/04/27 02:33:08;;;;;;;12.95;1.83;;;;;;;12.25;42.17;101527.53;4968978;28;99216;-70
2023/04/27 02:35:34;;;;;;;7.85;2.03;;;;;;;12.07;42.28;101534.25;4970959;28;97137;-70
2023/04/27 02:38:00;;;;;;;9.15;2.03;;;;;;;12.18;42.11;101537.47;4965903;28;96954;-69
2023/04/27 02:40:27;;;;;;;9.80;2.10;;;;;;;12.20;42.28;101537.41;4975847;28;99405;-69
2023/04/27 02:42:53;;;;;;;7.38;1.58;;;;;;;12.31;41.97;101538.81;4966359;28;99710;-69
2023/04/27 02:45:19;;;;;;;10.60;1.90;;;;;;;12.45;41.62;101532.25;4970411;28;97153;-70
2023/04/27 02:47:46;;;;;;;9.63;2.08;;;;;;;12.46;41.47;101528.69;4964264;28;98726;-69
2023/04/27 02:50:14;;;;;;;8.65;2.33;;;;;;;12.26;41.68;101538.09;4965532;28;102142;-70
2023/04/27 02:52:40;;;;;;;9.75;1.92;;;;;;;12.23;41.89;101534.66;4969369;28;98010;-69
2023/04/27 02:55:07;;;;;;;7.38;1.67;;;;;;;12.24;41.71;101539.06;4967235;28;97713;-71
2023/04/27 02:57:33;;;;;;;6.35;1.40;;;;;;;12.17;42.07;101538.38;4969890;28;97369;-71
2023/04/27 02:59:59;;;;;;;4.07;1.60;;;;;;;12.14;41.92;101545.56;4967074;28;99229;-71
2023/04/27 03:02:26;;;;;;;7.45;1.83;;;;;;;11.94;42.62;101548.78;4965602;28;98717;-70
2023/04/27 03:04:53;;;;;;;3.72;1.63;;;;;;;11.89;42.68;101545.34;4968274;28;96894;-71
2023/04/27 03:07:21;;;;;;;5.15;1.73;;;;;;;11.98;42.43;101537.16;4967848;28;97317;-72
2023/04/27 03:09:48;;;;;;;6.63;1.70;;;;;;;12.01;42.60;101545.03;4966683;28;98895;-71
2023/04/27 03:12:15;;;;;;;9.68;1.75;;;;;;;12.18;42.18;101550.72;4963322;28;102029;-71
2023/04/27 03:14:41;;;;;;;9.63;1.98;;;;;;;12.32;41.79;101555.59;4963560;28;98667;-70
2023/04/27 03:17:07;;;;;;;5.57;1.63;;;;;;;12.25;42.09;101549.63;4963323;28;97836;-69
2023/04/27 03:19:34;;;;;;;9.27;1.80;;;;;;;12.07;42.64;101546.63;4967079;28;99564;-70
2023/04/27 03:22:00;;;;;;;7.45;1.48;;;;;;;12.19;41.93;101548.94;4960566;28;98918;-70
2023/04/27 03:24:28;;;;;;;4.05;1.63;;;;;;;12.05;42.30;101551.09;4965334;28;96858;-69
2023/04/27 03:26:55;;;;;;;7.25;1.67;;;;;;;12.04;42.44;101546.72;4972144;28;96868;-70
2023/04/27 03:29:21;;;;;;;16.38;2.10;;;;;;;11.75;43.04;101552.84;4965993;28;99317;-70
2023/04/27 03:31:47;;;;;;;5.57;1.63;;;;;;;12.07;42.37;101550.16;4968221;28;99321;-72
2023/04/27 03:34:14;;;;;;;8.02;1.67;;;;;;;12.07;42.28;101555.47;4966399;28;96862;-71
2023/04/27 03:36:40;;;;;;;5.15;1.60;;;;;;;12.08;42.13;101559.81;4972860;28;98009;-71
2023/04/27 03:39:07;;;;;;;10.18;1.98;;;;;;;12.20;42.00;101561.28;4966130;28;101771;-70
2023/04/27 03:41:34;;;;;;;9.35;1.52;;;;;;;12.20;42.14;101561.28;4962502;28;99716;-71
2023/04/27 03:44:01;;;;;;;8.82;1.92;;;;;;;12.15;42.08;101558.72;4969015;28;98279;-70
2023/04/27 03:46:27;;;;;;;8.98;2.10;;;;;;;12.42;41.63;101561.47;4966828;28;97778;-72
2023/04/27 03:48:54;;;;;;;9.00;2.30;;;;;;;12.44;41.54;101567.59;4965977;28;98187;-72
2023/04/27 03:51:20;;;;;;;8.57;2.25;;;;;;;12.21;42.08;101574.44;4967815;28;100657;-69
2023/04/27 03:53:47;;;;;;;8.68;2.10;;;;;;;12.00;42.26;101579.50;4970466;28;96939;-69
2023/04/27 03:56:13;;;;;;;7.95;1.90;;;;;;;12.02;42.47;101573.25;4968777;28;97003;-70
2023/04/27 03:58:41;;;;;;;7.25;1.60;;;;;;;12.05;42.51;101582.88;4971916;28;98976;-70
2023/04/27 04:01:08;;;;;;;7.78;1.98;;;;;;;12.09;42.22;101576.59;4967849;28;98722;-70
2023/04/27 04:03:35;;;;;;;5.70;1.77;;;;;;;12.23;42.09;101582.34;4972942;28;96949;-70
2023/04/27 04:06:02;;;;;;;8.77;1.88;;;;;;;12.21;42.03;101584.16;4973803;28;96831;-70
2023/04/27 04:08:28;;;;;;;8.38;1.75;;;;;;;12.33;41.62;101578.53;4970108;28;98150;-71
2023/04/27 04:10:56;;;;;;;6.57;1.85;;;;;;;12.13;42.14;101587.06;4963569;28;97984;-70
2023/04/27 04:13:22;;;;;;;5.00;1.88;;;;;;;12.05;42.35;101589.06;4965801;28;97254;-70
2023/04/27 04:15:50;;;;;;;11.07;2.60;;;;;;;11.90;42.79;101594.78;4974393;28;96817;-69
2023/04/27 04:18:16;;;;;;;6.22;1.80;;;;;;;12.13;42.49;101597.66;4969100;28;102606;-70
2023/04/27 04:20:43;;;;;;;9.57;2.10;;;;;;;12.28;41.99;101594.56;4969292;28;98915;-71
2023/04/27 04:23:10;;;;;;;6.05;1.63;;;;;;;12.40;42.02;101600.44;4965119;28;97151;-70
2023/04/27 04:25:39;;;;;;;9.60;1.70;;;;;;;12.13;42.21;101604.75;4966640;28;96837;-70
2023/04/27 04:28:06;;;;;;;6.07;1.85;;;;;;;11.93;42.57;101603.53;4970643;28;99491;-69
2023/04/27 04:30:32;;;;;;;8.00;1.73;;;;;;;11.77;42.95;101599.53;4971937;28;99295;-70
2023/04/27 04:33:00;;;;;;;8.95;3.00;;;;;;;11.72;43.34;101612.00;4969785;28;96829;-70
2023/04/27 04:35:26;;;;;;;8.05;3.25;;;;;;;12.30;41.94;101599.81;4968281;28;96901;-69
2023/04/27 04:37:53;;;;;;;10.70;3.58;;;;;;;12.46;41.62;101608.19;4969568;28;99300;-69
2023/04/27 04:40:20;;;;;;;8.25;2.83;;;;;;;12.52;41.21;101605.38;4967665;28;98855;-69
2023/04/27 04:42:46;;;;;;;7.70;2.10;;;;;;;12.59;41.04;101607.78;4971323;28;97414;-70
2023/04/27 04:45:14;;;;;;;9.73;2.55;;;;;;;12.99;40.38;101606.56;4969712;28;96781;-70
2023/04/27 04:47:40;;;;;;;9.18;2.45;;;;;;;12.69;40.73;101611.88;4977647;28;96898;-70
2023/04/27 04:50:09;;;;;;;7.38;1.77;;;;;;;12.73;40.46;101610.03;4969970;28;98898;-70
2023/04/27 04:52:36;;;;;;;8.43;1.65;;;;;;;12.49;40.83;101616.03;4963626;28;99001;-71
2023/04/27 04:55:02;;;;;;;6.50;1.90;;;;;;;12.59;40.29;101621.03;4963825;28;98954;-71
2023/04/27 04:57:29;;;;;;;13.25;2.85;;;;;;;12.27;41.16;101624.63;4965759;28;99336;-70
2023/04/27 04:59:55;;;;;;;12.18;2.78;;;;;;;12.37;40.88;101612.84;4966687;28;98852;-70
2023/04/27 05:02:22;;;;;;;4.97;2.30;;;;;;;12.60;40.80;101624.56;4971193;28;98876;-70
2023/04/27 05:04:50;;;;;;;6.70;2.00;;;;;;;12.67;40.65;101626.09;4967796;28;97168;-71
2023/04/27 05:07:18;;;;;;;12.00;2.33;;;;;;;12.40;41.08;101622.50;4962462;28;99770;-71
2023/04/27 05:09:48;;;;;;;9.32;2.47;;;;;;;12.42;41.27;101623.31;4965877;28;98901;-70
2023/04/27 05:12:14;;;;;;;10.38;2.15;;;;;;;12.61;40.81;101621.84;4955119;28;97610;-70
2023/04/27 05:14:42;;;;;;;7.07;2.20;;;;;;;12.66;40.82;101627.91;4963244;28;97407;-69
2023/04/27 05:17:08;;;;;;;15.20;2.40;;;;;;;12.61;40.89;101632.44;4966215;28;99039;-70
2023/04/27 05:19:35;;;;;;;10.60;2.20;;;;;;;12.54;40.99;101630.03;4958044;28;98976;-71
2023/04/27 05:22:01;;;;;;;6.72;1.83;;;;;;;12.82;40.68;101630.94;4961130;28;96928;-69
2023/04/27 05:24:29;;;;;;;10.68;2.40;;;;;;;13.00;39.94;101624.19;4959282;28;96923;-71
2023/04/27 05:26:55;;;;;;;7.55;2.38;;;;;;;12.72;40.38;101625.06;4959187;28;98991;-71
2023/04/27 05:29:22;;;;;;;9.75;2.63;;;;;;;12.80;39.97;101627.47;4966493;28;98809;-70
2023/04/27 05:31:49;;;;;;;9.20;3.65;;;;;;;12.97;39.83;101629.59;4964663;28;98333;-69
2023/04/27 05:34:15;;;;;;;16.45;2.42;;;;;;;12.97;39.73;101619.88;4962650;28;97350;-70
2023/04/27 05:36:42;;;;;;;7.65;1.90;;;;;;;12.71;39.90;101627.75;4961521;28;98928;-70
2023/04/27 05:39:08;;;;;;;11.30;2.38;;;;;;;13.24;39.39;101628.75;4965793;28;99311;-71
2023/04/27 05:41:36;;;;;;;10.25;2.60;;;;;;;13.32;38.97;101632.03;4961542;28;97320;-71
2023/04/27 05:44:02;;;;;;;5.38;1.83;;;;;;;13.25;38.81;101635.81;4969177;28;96924;-71
2023/04/27 05:46:29;;;;;;;7.80;2.03;;;;;;;12.82;39.31;101638.03;4968523;28;98037;-71
2023/04/27 05:48:55;;;;;;;15.10;3.00;;;;;;;13.05;39.21;101633.75;4963936;28;99147;-70
2023/04/27 05:51:22;;;;;;;10.57;1.95;;;;;;;13.08;39.26;101640.75;4967874;28;96827;-70
2023/04/27 05:53:48;;;;;;;7.90;2.03;;;;;;;12.96;39.19;101642.00;4970166;28;97956;-71
2023/04/27 05:56:15;;;;;;;8.23;1.88;;;;;;;13.05;39.25;101640.84;4967669;28;97890;-71
2023/04/27 05:58:42;;;;;;;9.25;2.05;;;;;;;12.97;39.56;101638.44;4967417;28;98992;-72
2023/04/27 06:01:09;;;;;;;6.53;1.73;;;;;;;13.14;39.21;101637.91;4969476;28;96833;-72
2023/04/27 06:03:36;;;;;;;9.13;2.28;;;;;;;12.94;39.29;101643.81;4967835;28;96810;-71
2023/04/27 06:06:02;;;;;;;10.10;2.20;;;;;;;12.69;40.13;101651.66;4963319;28;100991;-70
2023/04/27 06:08:29;;;;;;;7.50;2.00;;;;;;;12.60;40.47;101648.44;4963537;28;99126;-71
2023/04/27 06:10:55;;;;;;;6.70;1.92;;;;;;;13.35;39.26;101642.53;4956764;28;97237;-70
2023/04/27 06:13:22;;;;;;;6.03;1.75;;;;;;;13.56;38.25;101654.25;4959414;28;96884;-70
2023/04/27 06:15:50;;;;;;;6.70;1.48;;;;;;;13.46;38.39;101655.44;4963647;28;99473;-71
2023/04/27 06:18:16;;;;;;;6.88;1.67;;;;;;;13.68;37.95;101661.78;4959396;28;98780;-69
2023/04/27 06:20:43;;;;;;;7.20;2.25;;;;;;;13.77;37.29;101656.19;4966927;28;96963;-71
2023/04/27 06:23:09;;;;;;;9.43;2.15;;;;;;;13.65;37.53;101658.38;4960572;28;97024;-72
2023/04/27 06:25:38;;;;;;;7.45;1.88;;;;;;;13.60;37.59;101663.84;4968249;28;99388;-72
2023/04/27 06:28:05;;;;;;;9.63;1.60;;;;;;;13.38;37.79;101668.13;4967124;28;98900;-73
2023/04/27 06:30:32;;;;;;;18.10;2.00;;;;;;;13.44;37.48;101662.63;4970938;28;97723;-73
2023/04/27 06:33:00;;;;;;;4.55;1.77;;;;;;;13.69;37.36;101662.66;4967691;28;100468;-72
2023/04/27 06:35:26;;;;;;;7.60;1.55;;;;;;;13.82;37.01;101667.50;4959616;28;98218;-72
2023/04/27 06:37:57;;;;;;;5.28;1.52;;;;;;;13.71;36.59;101661.72;4961224;28;99136;-73
2023/04/27 06:40:24;;;;;;;7.30;1.52;;;;;;;13.98;36.35;101667.81;4966140;28;96781;-74
2023/04/27 06:42:50;;;;;;;11.73;2.15;;;;;;;14.03;36.29;101678.31;4965131;28;96945;-74
2023/04/27 06:45:17;;;;;;;3.85;1.40;;;;;;;14.26;35.89;101659.75;4963337;28;99330;-75
2023/04/27 06:47:43;;;;;;;10.93;2.28;;;;;;;14.45;35.59;101671.47;4958497;28;99111;-73
2023/04/27 06:50:11;;;;;;;9.77;2.20;;;;;;;14.65;35.21;101663.63;4967670;28;98593;-75
2023/04/27 06:52:37;;;;;;;5.65;1.50;;;;;;;14.64;35.04;101667.22;4968246;28;97228;-72
2023/04/27 06:55:04;;;;;;;9.10;1.40;;;;;;;14.26;35.49;101660.63;4973772;28;99256;-73
2023/04/27 06:57:31;;;;;;;6.13;1.88;;;;;;;14.15;35.96;101668.13;4967109;28;98812;-73
2023/04/27 06:59:57;;;;;;;8.25;1.98;;;;;;;14.28;35.53;101673.88;4982008;28;96846;-73
2023/04/27 07:02:23;;;;;;;6.88;1.60;;;;;;;14.15;35.52;101673.44;4971303;28;96958;-72
2023/04/27 07:04:50;;;;;;;4.65;1.48;;;;;;;14.58;35.18;101675.41;4975811;28;101642;-75
2023/04/27 07:07:18;;;;;;;8.18;2.00;;;;;;;14.53;35.25;101673.84;4972035;28;99042;-73
2023/04/27 07:09:44;;;;;;;6.68;2.00;;;;;;;14.67;34.92;101674.22;4977211;28;96814;-72
2023/04/27 07:12:10;;;;;;;7.47;1.85;;;;;;;13.86;35.66;101676.22;4968404;28;97044;-74
2023/04/27 07:14:37;;;;;;;4.88;2.13;;;;;;;14.47;35.42;101682.94;4973884;28;101670;-70
2023/04/27 07:17:03;;;;;;;10.75;1.95;;;;;;;14.72;35.12;101680.22;4976173;28;99422;-71
2023/04/27 07:19:30;;;;;;;7.05;1.98;;;;;;;15.08;34.96;101672.63;4971088;28;96998;-73
2023/04/27 07:21:56;;;;;;;9.27;1.98;;;;;;;15.27;34.23;101672.75;4972489;28;96912;-72
2023/04/27 07:24:24;;;;;;;5.65;1.85;;;;;;;14.83;34.54;101667.41;4970609;28;97755;-72
2023/04/27 07:26:50;;;;;;;12.82;3.15;;;;;;;15.10;34.21;101676.06;4970262;28;99284;-74
2023/04/27 07:29:17;;;;;;;10.57;2.72;;;;;;;15.51;33.72;101671.75;4971611;28;96925;-73
2023/04/27 07:31:43;;;;;;;10.05;2.53;;;;;;;15.95;32.58;101677.88;4979674;28;96836;-72
2023/04/27 07:34:10;;;;;;;10.95;2.25;;;;;;;16.16;32.14;101668.97;4971571;28;99404;-72
2023/04/27 07:36:37;;;;;;;7.88;1.83;;;;;;;16.31;31.95;101665.63;4976394;28;99229;-73
2023/04/27 07:39:06;;;;;;;9.68;2.78;;;;;;;16.17;31.37;101673.38;4972858;28;97476;-73
2023/04/27 07:41:35;;;;;;;8.98;2.22;;;;;;;16.37;31.34;101666.28;4970651;28;96829;-74
2023/04/27 07:44:01;;;;;;;6.90;1.95;;;;;;;16.20;31.24;101670.59;4967932;28;98999;-73
2023/04/27 07:46:29;;;;;;;5.25;2.53;;;;;;;16.53;30.68;101673.53;4965852;28;99284;-73
2023/04/27 07:48:58;;;;;;;7.63;2.00;;;;;;;16.55;30.72;101676.13;4977643;28;96720;-72
2023/04/27 07:51:27;;;;;;;4.35;1.88;;;;;;;15.96;31.40;101682.28;4972973;28;97245;-72
2023/04/27 07:53:53;;;;;;;12.05;1.95;;;;;;;16.26;30.99;101683.66;4975644;28;99614;-72
2023/04/27 07:56:20;;;;;;;8.18;1.73;;;;;;;15.94;31.18;101684.19;4979833;28;99126;-72
2023/04/27 07:58:48;;;;;;;7.43;2.00;;;;;;;15.83;31.60;101683.75;4972640;28;96841;-71
2023/04/27 08:01:14;;;;;;;6.43;2.50;;;;;;;16.21;31.00;101685.63;4970354;28;97056;-73
2023/04/27 08:03:41;;;;;;;6.50;1.65;;;;;;;16.53;30.52;101683.34;4962794;28;99031;-72
2023/04/27 08:06:07;;;;;;;7.22;3.10;;;;;;;16.29;30.58;101687.97;4967499;28;97952;-72
2023/04/27 08:08:33;;;;;;;6.30;1.75;;;;;;;16.22;30.48;101692.69;4973036;28;96899;-72
2023/04/27 08:11:00;;;;;;;7.13;2.05;;;;;;;15.74;31.04;101689.50;4968632;28;96972;-74
2023/04/27 08:13:26;;;;;;;4.15;1.70;;;;;;;15.21;32.06;101692.50;4971388;28;100741;-73
2023/04/27 08:15:57;;;;;;;5.45;1.88;;;;;;;15.72;31.39;101692.22;4968557;28;98990;-74
2023/04/27 08:18:24;;;;;;;12.30;1.75;;;;;;;15.72;31.66;101688.69;4969749;28;97459;-73
2023/04/27 08:20:51;;;;;;;7.65;1.77;;;;;;;15.57;31.36;101687.50;4961498;28;97079;-74
2023/04/27 08:23:17;;;;;;;10.82;2.08;;;;;;;16.23;30.88;101689.09;4962141;28;98872;-73
2023/04/27 08:25:43;;;;;;;7.07;2.10;;;;;;;16.69;30.08;101687.94;4964630;28;98866;-73
2023/04/27 08:28:10;;;;;;;8.95;2.22;;;;;;;16.02;30.34;101698.03;4963846;28;96765;-72
2023/04/27 08:30:36;;;;;;;10.80;2.45;;;;;;;15.45;30.73;101695.97;4966866;28;96875;-73
2023/04/27 08:33:04;;;;;;;14.50;2.50;;;;;;;14.93;31.33;101699.84;4965373;28;99333;-72
2023/04/27 08:35:30;;;;;;;7.55;2.42;;;;;;;14.82;31.22;101696.72;4967924;28;98743;-74
2023/04/27 08:37:57;;;;;;;7.55;1.98;;;;;;;14.77;31.85;101699.53;4960882;28;96860;-74
2023/04/27 08:40:23;;;;;;;5.22;1.73;;;;;;;15.07;31.56;101693.06;4957605;28;97564;-73
2023/04/27 08:43:00;;;;;;;6.28;2.53;;;;;;;15.30;31.44;101688.59;4966142;28;99991;-73
2023/04/27 08:45:27;;;;;;;7.93;2.40;;;;;;;14.75;32.29;101701.41;4962369;28;99216;-74
2023/04/27 08:47:54;;;;;;;4.72;1.70;;;;;;;14.79;31.76;101694.16;4964753;28;97472;-73
2023/04/27 08:50:23;;;;;;;6.43;1.75;;;;;;;14.69;31.37;101696.31;4965674;28;96817;-73
2023/04/27 08:52:50;;;;;;;6.30;2.03;;;;;;;14.98;30.95;101697.84;4963689;28;98936;-73
2023/04/27 08:55:17;;;;;;;5.85;1.83;;;;;;;14.95;30.90;101690.00;4963552;28;98889;-74
2023/04/27 08:57:53;;;;;;;4.05;1.83;;;;;;;14.87;31.27;101700.06;4965195;28;97160;-73
2023/04/27 09:00:20;;;;;;;7.00;1.85;;;;;;;14.82;31.68;101696.72;4965240;28;96769;-73
2023/04/27 09:02:48;;;;;;;3.17;1.60;;;;;;;14.96;31.18;101695.28;4962468;28;98915;-75
2023/04/27 09:05:18;;;;;;;7.07;2.00;;;;;;;15.33;30.87;101693.81;4962255;28;97531;-74
2023/04/27 09:07:57;;;;;;;4.35;1.50;;;;;;;15.74;30.28;101694.81;4965009;28;97685;-73
2023/04/27 09:10:24;;;;;;;8.00;2.10;;;;;;;16.49;29.45;101700.41;4963856;28;97402;-73
2023/04/27 09:12:58;;;;;;;6.90;1.92;;;;;;;17.14;28.64;101690.25;4962389;28;99166;-72
2023/04/27 09:15:24;;;;;;;7.70;1.70;;;;;;;16.75;28.77;101686.78;4964217;28;97929;-72
2023/04/27 09:17:55;;;;;;;5.93;1.70;;;;;;;16.48;29.20;101694.19;4963350;28;96787;-73
2023/04/27 09:20:22;;;;;;;4.68;1.55;;;;;;;16.23;29.72;101699.75;4961451;28;96930;-74
2023/04/27 09:22:54;;;;;;;9.63;1.90;;;;;;;16.25;29.73;101697.91;4964066;28;99458;-73
2023/04/27 09:25:26;;;;;;;4.78;1.98;;;;;;;16.14;30.00;101699.31;4960899;28;99260;-72
2023/04/27 09:27:52;;;;;;;6.75;1.88;;;;;;;15.78;30.38;101691.94;4964774;28;97085;-73
2023/04/27 09:30:20;;;;;;;9.60;1.70;;;;;;;15.73;29.98;101693.94;4961909;28;96823;-73
2023/04/27 09:32:51;;;;;;;3.25;1.33;;;;;;;15.32;30.01;101692.06;4967454;28;98855;-74
2023/04/27 09:35:22;;;;;;;5.03;1.73;;;;;;;15.60;29.98;101687.41;4965559;28;98992;-74
2023/04/27 09:37:50;;;;;;;6.28;1.58;;;;;;;15.24;30.79;101689.72;4968403;28;96909;-73
2023/04/27 09:40:18;;;;;;;4.93;1.80;;;;;;;15.10;31.06;101671.63;4961332;28;98046;-73
2023/04/27 09:42:46;;;;;;;5.05;1.55;;;;;;;15.26;30.70;101687.88;4963161;28;98914;-73
2023/04/27 09:45:13;;;;;;;12.10;2.00;;;;;;;15.15;30.99;101668.78;4956572;28;100918;-73
2023/04/27 09:47:40;;;;;;;7.38;1.77;;;;;;;15.13;31.17;101670.66;4959879;28;98094;-72
2023/04/27 09:50:09;;;;;;;3.53;1.25;;;;;;;15.28;30.23;101680.69;4964135;28;96870;-73
2023/04/27 09:52:36;;;;;;;10.73;2.25;;;;;;;15.30;29.90;101677.94;4961596;28;99312;-72
2023/04/27 09:55:05;;;;;;;3.20;1.50;;;;;;;15.72;29.45;101670.91;4968036;28;97513;-73
2023/04/27 09:57:38;;;;;;;7.88;1.88;;;;;;;15.91;29.24;101668.31;4965114;28;96714;-73
2023/04/27 10:00:20;;;;;;;6.68;1.50;;;;;;;16.01;29.45;101661.66;4963106;28;96794;-72
2023/04/27 10:02:59;;;;;;;4.43;1.15;;;;;;;15.70;28.48;101666.53;4962504;28;98961;-73
2023/04/27 10:05:49;;;;;;;4.15;1.10;;;;;;;14.50;28.98;101676.66;4965693;28;99028;-72
2023/04/27 10:08:17;;;;;;;2.72;0.93;;;;;;;14.45;27.60;101673.28;4965699;28;96879;-73
2023/04/27 10:10:46;;;;;;;12.02;1.23;;;;;;;14.66;27.77;101665.38;4964963;28;98000;-73
2023/04/27 10:13:21;;;;;;;2.58;0.98;;;;;;;15.15;27.37;101658.16;4961669;28;98935;-73
2023/04/27 10:15:50;;;;;;;3.17;1.27;;;;;;;15.40;26.75;101652.69;4966851;28;99289;-73
2023/04/27 10:18:26;;;;;;;3.33;1.20;;;;;;;16.35;26.13;101650.34;4963733;28;97370;-73
2023/04/27 10:20:52;;;;;;;6.15;1.00;;;;;;;16.48;25.84;101643.50;4964392;28;97358;-73
2023/04/27 10:23:24;;;;;;;6.97;1.40;;;;;;;16.22;26.54;101649.16;4965237;28;101937;-73
2023/04/27 10:25:51;;;;;;;3.13;1.25;;;;;;;15.91;27.12;101655.84;4971469;28;99453;-73
2023/04/27 10:28:17;;;;;;;6.05;1.48;;;;;;;16.07;27.56;101656.06;4969935;28;97701;-72
2023/04/27 10:30:45;;;;;;;6.68;1.60;;;;;;;15.80;28.05;101662.59;4974522;28;97024;-72
2023/04/27 10:33:17;;;;;;;5.00;1.13;;;;;;;15.51;28.56;101655.78;4964496;28;98927;-73
2023/04/27 10:35:44;;;;;;;6.70;2.03;;;;;;;15.69;28.74;101659.47;4967786;28;99165;-72
2023/04/27 10:38:15;;;;;;;7.68;1.33;;;;;;;15.22;29.12;101656.97;4969794;28;97895;-73
2023/04/27 10:40:44;;;;;;;3.42;1.35;;;;;;;15.48;29.33;101656.78;4961994;28;97665;-73
2023/04/27 10:43:12;;;;;;;4.90;1.40;;;;;;;15.89;28.71;101664.84;4970357;28;99138;-73
2023/04/27 10:45:39;;;;;;;5.55;1.30;;;;;;;16.00;28.34;101659.06;4969326;28;99160;-73
2023/04/27 10:48:06;;;;;;;1.92;0.95;;;;;;;15.97;26.63;101654.72;4970014;28;96829;-73
2023/04/27 10:50:34;;;;;;;4.53;1.45;;;;;;;16.38;25.99;101655.56;4967527;28;97045;-73
2023/04/27 10:53:03;;;;;;;5.53;1.08;;;;;;;16.59;24.50;101641.25;4966864;28;99517;-72
2023/04/27 10:55:30;;;;;;;7.93;1.88;;;;;;;17.06;24.35;101651.53;4968551;28;98203;-72
2023/04/27 10:57:58;;;;;;;3.08;1.25;;;;;;;16.74;24.47;101647.69;4967391;28;96973;-74
2023/04/27 11:00:25;;;;;;;2.20;1.02;;;;;;;16.14;25.19;101643.31;4968846;28;98629;-73
2023/04/27 11:02:53;;;;;;;5.53;1.05;;;;;;;16.14;25.44;101649.53;4964629;28;99444;-74
2023/04/27 11:05:22;;;;;;;4.00;1.30;;;;;;;15.54;26.45;101648.56;4958526;28;99212;-73
2023/04/27 11:07:50;;;;;;;3.25;1.02;;;;;;;15.15;27.65;101647.50;4966130;28;96847;-72
2023/04/27 11:10:17;;;;;;;2.97;1.17;;;;;;;15.13;27.97;101654.66;4965967;28;96861;-72
2023/04/27 11:12:44;;;;;;;6.75;1.17;;;;;;;15.28;27.29;101647.88;4970196;28;99162;-74
2023/04/27 11:15:11;;;;;;;4.63;1.38;;;;;;;15.15;27.40;101656.34;4970370;28;99252;-73
2023/04/27 11:17:38;;;;;;;5.30;0.90;;;;;;;15.27;27.15;101655.00;4970649;28;97504;-73
2023/04/27 11:20:07;;;;;;;7.65;2.40;;;;;;;15.79;26.96;101652.84;4967559;28;96947;-71
2023/04/27 11:22:34;;;;;;;5.95;1.23;;;;;;;16.10;26.35;101649.72;4965398;28;98921;-72
2023/04/27 11:25:02;;;;;;;6.45;1.40;;;;;;;16.23;25.83;101649.09;4966320;28;99779;-73